createdAt,value
2018-12-16T00:01:40.690Z,93.80
2018-12-16T00:04:12.450Z,93.30
2018-12-16T00:06:44.545Z,93.60
2018-12-16T00:09:14.626Z,93.70
2018-12-16T00:11:44.485Z,93.60
2018-12-16T00:14:14.773Z,93.70
2018-12-16T00:16:44.329Z,93.70
2018-12-16T00:19:14.085Z,93.70
2018-12-16T00:21:44.049Z,93.70
2018-12-16T00:24:13.812Z,93.90
2018-12-16T00:26:54.643Z,94.00
2018-12-16T00:29:24.502Z,93.70
2018-12-16T00:31:53.859Z,94.00
2018-12-16T00:34:23.439Z,93.70
2018-12-16T00:36:52.914Z,93.30
2018-12-16T00:39:22.704Z,93.40
2018-12-16T00:41:52.335Z,93.50
2018-12-16T00:44:22.166Z,93.70
2018-12-16T00:46:51.873Z,93.70
2018-12-16T00:49:21.478Z,93.70
2018-12-16T00:51:51.290Z,93.40
2018-12-16T00:54:21.232Z,93.50
2018-12-16T00:56:50.740Z,93.70
2018-12-16T00:59:20.318Z,93.70
2018-12-16T01:01:49.920Z,93.70
2018-12-16T01:04:19.846Z,93.40
2018-12-16T01:06:49.296Z,93.40
2018-12-16T01:09:20.144Z,93.60
2018-12-16T01:11:49.556Z,93.50
2018-12-16T01:14:19.273Z,93.50
2018-12-16T01:16:48.830Z,93.30
2018-12-16T01:19:18.670Z,93.10
2018-12-16T01:21:48.278Z,93.30
2018-12-16T01:24:18.498Z,93.50
2018-12-16T01:26:48.043Z,93.50
2018-12-16T01:29:17.562Z,93.60
2018-12-16T01:31:46.920Z,93.10
2018-12-16T01:34:16.619Z,93.10
2018-12-16T01:36:46.073Z,92.80
2018-12-16T01:39:16.937Z,92.60
2018-12-16T01:41:46.716Z,92.80
2018-12-16T01:44:16.602Z,92.60
2018-12-16T01:46:46.654Z,92.60
2018-12-16T01:49:16.306Z,93.30
2018-12-16T01:51:45.995Z,93.10
2018-12-16T01:54:15.383Z,93.10
2018-12-16T01:56:45.151Z,93.20
2018-12-16T01:59:14.699Z,93.20
2018-12-16T02:01:49.492Z,93.10
2018-12-16T02:04:19.458Z,93.30
2018-12-16T02:06:49.381Z,93.30
2018-12-16T02:09:19.177Z,93.20
2018-12-16T02:11:48.709Z,93.10
2018-12-16T02:14:18.181Z,93.50
2018-12-16T02:16:47.987Z,93.20
2018-12-16T02:19:17.685Z,93.20
2018-12-16T02:21:47.462Z,93.10
2018-12-16T02:24:17.639Z,93.10
2018-12-16T02:26:47.198Z,93.40
2018-12-16T02:29:16.854Z,93.10
2018-12-16T02:31:46.702Z,93.40
2018-12-16T02:34:16.350Z,93.60
2018-12-16T02:36:46.171Z,93.50
2018-12-16T02:39:16.025Z,93.70
2018-12-16T02:41:45.669Z,93.40
2018-12-16T02:44:15.249Z,93.20
2018-12-16T02:46:44.642Z,93.30
2018-12-16T02:49:14.576Z,93.40
2018-12-16T02:51:44.294Z,93.50
2018-12-16T02:54:14.165Z,93.30
2018-12-16T02:56:43.571Z,93.30
2018-12-16T02:59:13.070Z,93.40
2018-12-16T03:01:46.586Z,93.60
2018-12-16T03:04:16.413Z,93.50
2018-12-16T03:06:45.854Z,93.60
2018-12-16T03:09:15.410Z,93.70
2018-12-16T03:11:45.006Z,93.70
2018-12-16T03:14:14.594Z,93.70
2018-12-16T03:16:44.153Z,93.70
2018-12-16T03:19:13.561Z,93.50
2018-12-16T03:21:42.865Z,93.70
2018-12-16T03:24:12.206Z,93.70
2018-12-16T03:26:41.669Z,93.60
2018-12-16T03:29:11.035Z,93.70
2018-12-16T03:31:40.368Z,93.60
2018-12-16T03:34:10.691Z,93.60
2018-12-16T03:36:40.367Z,93.70
2018-12-16T03:39:09.836Z,93.40
2018-12-16T03:41:39.320Z,93.60
2018-12-16T03:44:08.781Z,93.60
2018-12-16T03:46:38.321Z,93.40
2018-12-16T03:49:07.624Z,93.70
2018-12-16T03:51:37.467Z,93.70
2018-12-16T03:54:07.116Z,93.40
2018-12-16T03:56:36.851Z,93.40
2018-12-16T03:59:16.445Z,93.30
2018-12-16T04:01:50.858Z,93.40
2018-12-16T04:04:20.343Z,93.30
2018-12-16T04:06:49.644Z,93.30
2018-12-16T04:09:19.160Z,93.40
2018-12-16T04:11:48.480Z,93.40
2018-12-16T04:14:18.034Z,93.60
2018-12-16T04:16:49.490Z,93.60
2018-12-16T04:19:18.994Z,93.70
2018-12-16T04:21:48.491Z,93.50
2018-12-16T04:24:18.307Z,93.50
2018-12-16T04:26:48.012Z,93.50
2018-12-16T04:29:17.577Z,93.40
2018-12-16T04:31:47.306Z,93.30
2018-12-16T04:34:16.891Z,93.30
2018-12-16T04:36:46.255Z,93.30
2018-12-16T04:39:16.002Z,93.50
2018-12-16T04:41:45.773Z,93.40
2018-12-16T04:44:15.437Z,93.40
2018-12-16T04:46:45.344Z,93.30
2018-12-16T04:49:17.041Z,93.30
2018-12-16T04:51:46.927Z,93.40
2018-12-16T04:54:16.549Z,93.10
2018-12-16T04:56:45.953Z,92.80
2018-12-16T04:59:15.241Z,93.10
2018-12-16T05:01:44.847Z,93.30
2018-12-16T05:04:14.371Z,93.30
2018-12-16T05:06:44.117Z,93.40
2018-12-16T05:09:13.450Z,93.40
2018-12-16T05:11:43.094Z,93.70
2018-12-16T05:14:12.572Z,93.40
2018-12-16T05:16:41.890Z,93.40
2018-12-16T05:19:11.493Z,93.70
2018-12-16T05:21:41.088Z,93.40
2018-12-16T05:24:10.582Z,93.40
2018-12-16T05:26:40.052Z,93.30
2018-12-16T05:29:09.705Z,93.30
2018-12-16T05:31:38.966Z,93.30
2018-12-16T05:34:08.628Z,93.40
2018-12-16T05:36:38.031Z,93.40
2018-12-16T05:39:07.982Z,93.50
2018-12-16T05:41:37.678Z,93.50
2018-12-16T05:44:07.090Z,93.50
2018-12-16T05:46:36.686Z,93.50
2018-12-16T05:49:06.267Z,93.40
2018-12-16T05:51:35.962Z,93.70
2018-12-16T05:54:05.542Z,93.70
2018-12-16T05:56:35.150Z,93.40
2018-12-16T05:59:04.913Z,93.50
2018-12-16T06:01:34.557Z,93.50
2018-12-16T06:04:04.063Z,93.60
2018-12-16T06:06:34.988Z,93.60
2018-12-16T06:09:06.168Z,93.60
2018-12-16T06:11:37.168Z,93.60
2018-12-16T06:14:06.659Z,93.50
2018-12-16T06:16:36.395Z,93.60
2018-12-16T06:19:06.177Z,93.50
2018-12-16T06:21:35.838Z,93.70
2018-12-16T06:24:05.450Z,93.70
2018-12-16T06:26:35.590Z,93.60
2018-12-16T06:29:05.091Z,93.60
2018-12-16T06:31:35.203Z,93.60
2018-12-16T06:34:04.845Z,93.60
2018-12-16T06:36:34.477Z,93.50
2018-12-16T06:39:06.131Z,93.20
2018-12-16T06:41:37.520Z,93.10
2018-12-16T06:44:07.681Z,92.30
2018-12-16T06:46:37.649Z,92.40
2018-12-16T06:49:07.631Z,92.40
2018-12-16T06:51:37.351Z,93.10
2018-12-16T06:54:06.743Z,92.80
2018-12-16T06:56:36.377Z,93.20
2018-12-16T06:59:05.974Z,93.20
2018-12-16T07:01:35.571Z,93.10
2018-12-16T07:04:05.159Z,93.30
2018-12-16T07:06:35.407Z,93.30
2018-12-16T07:09:07.043Z,93.40
2018-12-16T07:11:37.041Z,93.30
2018-12-16T07:14:06.511Z,93.30
2018-12-16T07:16:36.039Z,93.50
2018-12-16T07:19:05.549Z,93.30
2018-12-16T07:21:35.107Z,93.40
2018-12-16T07:24:09.203Z,93.50
2018-12-16T07:26:36.889Z,93.40
2018-12-16T07:29:06.690Z,93.30
2018-12-16T07:31:39.201Z,93.30
2018-12-16T07:34:08.774Z,93.10
2018-12-16T07:36:38.404Z,93.10
2018-12-16T07:39:08.396Z,93.10
2018-12-16T07:41:38.840Z,93.00
2018-12-16T07:44:08.342Z,93.00
2018-12-16T07:46:38.665Z,92.80
2018-12-16T07:49:08.406Z,92.80
2018-12-16T07:51:38.648Z,92.70
2018-12-16T07:54:08.776Z,92.60
2018-12-16T07:56:38.568Z,92.60
2018-12-16T07:59:08.342Z,92.20
2018-12-16T08:01:38.179Z,92.30
2018-12-16T08:04:08.138Z,92.20
2018-12-16T08:06:38.194Z,92.20
2018-12-16T08:09:08.347Z,92.30
2018-12-16T08:11:39.950Z,91.80
2018-12-16T08:14:09.575Z,91.60
2018-12-16T08:16:39.324Z,91.50
2018-12-16T08:19:08.792Z,91.10
2018-12-16T08:21:38.844Z,90.70
2018-12-16T08:24:08.362Z,91.30
2018-12-16T08:26:37.994Z,91.40
2018-12-16T08:29:07.389Z,90.20
2018-12-16T08:31:37.029Z,86.60
2018-12-16T08:34:06.456Z,84.40
2018-12-16T08:36:35.770Z,80.40
2018-12-16T08:39:07.410Z,81.10
2018-12-16T08:41:39.652Z,80.60
2018-12-16T08:44:09.104Z,76.90
2018-12-16T08:46:38.542Z,76.20
2018-12-16T08:49:08.019Z,72.00
2018-12-16T08:51:38.192Z,72.00
2018-12-16T08:54:07.608Z,71.60
2018-12-16T08:56:37.007Z,73.40
2018-12-16T08:59:06.461Z,77.40
2018-12-16T09:01:36.220Z,80.40
2018-12-16T09:04:06.033Z,81.80
2018-12-16T09:06:35.997Z,85.20
2018-12-16T09:09:08.446Z,84.50
2018-12-16T09:11:38.773Z,85.30
2018-12-16T09:14:08.132Z,85.00
2018-12-16T09:16:37.810Z,83.60
2018-12-16T09:19:07.770Z,84.20
2018-12-16T09:21:38.986Z,81.10
2018-12-16T09:24:08.818Z,81.20
2018-12-16T09:26:39.014Z,81.30
2018-12-16T09:29:08.801Z,78.50
2018-12-16T09:31:38.928Z,75.80
2018-12-16T09:34:08.779Z,73.40
2018-12-16T09:36:38.622Z,72.40
2018-12-16T09:39:08.989Z,72.30
2018-12-16T09:41:38.525Z,69.60
2018-12-16T09:44:08.502Z,69.00
2018-12-16T09:46:38.334Z,67.00
2018-12-16T09:49:08.149Z,66.40
2018-12-16T09:51:37.812Z,66.40
2018-12-16T09:54:07.575Z,64.60
2018-12-16T09:56:37.156Z,64.90
2018-12-16T09:59:07.380Z,65.10
2018-12-16T10:01:37.016Z,65.80
2018-12-16T10:04:06.688Z,65.70
2018-12-16T10:06:36.514Z,66.30
2018-12-16T10:09:08.438Z,66.90
2018-12-16T10:11:38.040Z,66.30
2018-12-16T10:14:08.083Z,67.30
2018-12-16T10:16:37.875Z,67.40
2018-12-16T10:19:07.621Z,66.20
2018-12-16T10:21:37.476Z,66.10
2018-12-16T10:24:07.186Z,64.20
2018-12-16T10:26:37.334Z,63.40
2018-12-16T10:29:07.456Z,63.90
2018-12-16T10:31:37.288Z,64.40
2018-12-16T10:34:07.164Z,63.60
2018-12-16T10:36:36.769Z,63.60
2018-12-16T10:39:08.222Z,61.40
2018-12-16T10:41:39.812Z,61.10
2018-12-16T10:44:09.638Z,60.90
2018-12-16T10:46:39.234Z,61.60
2018-12-16T10:49:08.647Z,61.10
2018-12-16T10:51:38.928Z,61.10
2018-12-16T10:54:08.789Z,62.10
2018-12-16T10:56:38.371Z,61.00
2018-12-16T10:59:07.704Z,61.60
2018-12-16T11:01:37.106Z,63.20
2018-12-16T11:04:06.657Z,62.50
2018-12-16T11:06:36.649Z,62.60
2018-12-16T11:09:06.752Z,62.80
2018-12-16T11:11:38.374Z,63.00
2018-12-16T11:14:07.801Z,63.70
2018-12-16T11:16:37.207Z,63.30
2018-12-16T11:19:06.818Z,64.00
2018-12-16T11:21:36.226Z,64.80
2018-12-16T11:24:05.640Z,65.30
2018-12-16T11:26:35.444Z,64.20
2018-12-16T11:29:05.106Z,63.80
2018-12-16T11:31:35.125Z,64.20
2018-12-16T11:34:05.905Z,64.50
2018-12-16T11:36:35.531Z,64.70
2018-12-16T11:39:06.721Z,65.10
2018-12-16T11:41:38.268Z,64.60
2018-12-16T11:44:07.731Z,65.20
2018-12-16T11:46:37.513Z,65.30
2018-12-16T11:49:07.019Z,65.30
2018-12-16T11:51:36.976Z,65.80
2018-12-16T11:54:06.569Z,66.10
2018-12-16T11:56:35.988Z,66.90
2018-12-16T11:59:05.671Z,67.00
2018-12-16T12:01:35.506Z,67.00
2018-12-16T12:04:07.381Z,66.00
2018-12-16T12:06:37.001Z,66.00
2018-12-16T12:09:07.511Z,66.90
2018-12-16T12:11:39.749Z,67.00
2018-12-16T12:14:09.925Z,67.20
2018-12-16T12:16:39.824Z,67.30
2018-12-16T12:19:09.548Z,67.50
2018-12-16T12:21:39.565Z,67.80
2018-12-16T12:24:09.852Z,67.60
2018-12-16T12:26:39.917Z,67.40
2018-12-16T12:29:09.476Z,67.80
2018-12-16T12:31:39.640Z,67.80
2018-12-16T12:34:09.117Z,68.00
2018-12-16T12:36:38.750Z,67.00
2018-12-16T12:39:08.266Z,67.30
2018-12-16T12:41:39.779Z,67.50
2018-12-16T12:44:09.820Z,67.30
2018-12-16T12:46:39.737Z,67.50
2018-12-16T12:49:09.206Z,67.20
2018-12-16T12:51:38.797Z,66.70
2018-12-16T12:54:08.416Z,66.70
2018-12-16T12:56:37.863Z,67.00
2018-12-16T12:59:07.178Z,66.50
2018-12-16T13:01:36.814Z,67.20
2018-12-16T13:04:06.838Z,67.40
2018-12-16T13:06:36.355Z,66.60
2018-12-16T13:09:07.999Z,66.60
2018-12-16T13:11:39.498Z,66.70
2018-12-16T13:14:08.967Z,66.60
2018-12-16T13:16:38.317Z,66.60
2018-12-16T13:19:07.681Z,66.60
2018-12-16T13:21:37.025Z,66.50
2018-12-16T13:24:06.697Z,67.30
2018-12-16T13:26:36.517Z,67.40
2018-12-16T13:29:06.004Z,67.30
2018-12-16T13:31:35.586Z,67.20
2018-12-16T13:34:05.212Z,67.40
2018-12-16T13:36:35.172Z,68.70
2018-12-16T13:39:07.102Z,68.00
2018-12-16T13:41:38.258Z,68.00
2018-12-16T13:44:07.920Z,68.20
2018-12-16T13:46:37.315Z,68.80
2018-12-16T13:49:07.024Z,69.10
2018-12-16T13:51:36.832Z,69.10
2018-12-16T13:54:06.630Z,69.30
2018-12-16T13:56:36.103Z,68.00
2018-12-16T13:59:05.670Z,69.20
2018-12-16T14:01:36.684Z,69.60
2018-12-16T14:04:06.180Z,69.40
2018-12-16T14:06:35.720Z,68.80
2018-12-16T14:09:07.397Z,69.60
2018-12-16T14:11:38.730Z,69.90
2018-12-16T14:14:08.554Z,69.80
2018-12-16T14:16:38.022Z,70.10
2018-12-16T14:19:07.375Z,70.40
2018-12-16T14:21:36.928Z,70.20
2018-12-16T14:24:06.268Z,70.80
2018-12-16T14:26:35.977Z,70.50
2018-12-16T14:29:05.735Z,71.40
2018-12-16T14:31:35.657Z,71.70
2018-12-16T14:34:05.463Z,72.10
2018-12-16T14:36:35.398Z,72.50
2018-12-16T14:39:07.838Z,72.50
2018-12-16T14:41:39.561Z,72.90
2018-12-16T14:44:09.163Z,72.70
2018-12-16T14:46:38.752Z,73.10
2018-12-16T14:49:08.795Z,73.00
2018-12-16T14:51:38.552Z,73.00
2018-12-16T14:54:08.595Z,73.00
2018-12-16T14:56:38.283Z,72.80
2018-12-16T14:59:08.160Z,74.20
2018-12-16T15:01:38.164Z,73.40
2018-12-16T15:04:08.489Z,73.30
2018-12-16T15:06:38.684Z,73.60
2018-12-16T15:09:09.105Z,73.80
2018-12-16T15:11:39.532Z,74.50
2018-12-16T15:14:09.544Z,74.30
2018-12-16T15:16:39.314Z,74.80
2018-12-16T15:19:09.203Z,75.00
2018-12-16T15:21:38.615Z,75.50
2018-12-16T15:24:08.220Z,75.00
2018-12-16T15:26:37.624Z,75.20
2018-12-16T15:29:07.438Z,74.20
2018-12-16T15:31:36.953Z,74.10
2018-12-16T15:34:06.584Z,74.10
2018-12-16T15:36:36.494Z,75.00
2018-12-16T15:39:07.885Z,74.60
2018-12-16T15:41:39.565Z,75.50
2018-12-16T15:44:10.122Z,75.80
2018-12-16T15:46:39.548Z,76.10
2018-12-16T15:49:09.286Z,76.70
2018-12-16T15:51:38.693Z,77.50
2018-12-16T15:54:08.089Z,76.40
2018-12-16T15:56:37.467Z,76.50
2018-12-16T15:59:06.977Z,76.20
2018-12-16T16:01:36.533Z,76.40
2018-12-16T16:04:06.228Z,75.30
2018-12-16T16:06:35.752Z,76.70
2018-12-16T16:09:07.152Z,77.30
2018-12-16T16:11:38.602Z,75.80
2018-12-16T16:14:08.184Z,76.20
2018-12-16T16:16:38.200Z,75.60
2018-12-16T16:19:07.705Z,77.80
2018-12-16T16:21:37.309Z,78.50
2018-12-16T16:24:07.058Z,79.00
2018-12-16T16:26:36.878Z,79.00
2018-12-16T16:29:06.652Z,81.70
2018-12-16T16:31:36.605Z,80.50
2018-12-16T16:34:06.610Z,81.80
2018-12-16T16:36:36.665Z,81.40
2018-12-16T16:39:07.540Z,83.20
2018-12-16T16:41:39.192Z,82.70
2018-12-16T16:44:08.717Z,83.50
2018-12-16T16:46:38.316Z,82.70
2018-12-16T16:49:08.068Z,83.30
2018-12-16T16:51:37.849Z,84.10
2018-12-16T16:54:08.038Z,83.70
2018-12-16T16:56:37.636Z,83.50
2018-12-16T16:59:07.444Z,83.40
2018-12-16T17:01:37.246Z,83.80
2018-12-16T17:04:06.824Z,84.60
2018-12-16T17:06:36.459Z,85.30
2018-12-16T17:09:14.359Z,84.90
2018-12-16T17:11:44.033Z,85.20
2018-12-16T17:14:13.609Z,84.90
2018-12-16T17:16:43.076Z,84.90
2018-12-16T17:19:12.957Z,85.90
2018-12-16T17:21:42.417Z,85.50
2018-12-16T17:24:12.218Z,85.80
2018-12-16T17:26:41.943Z,86.80
2018-12-16T17:29:11.401Z,86.50
2018-12-16T17:31:42.013Z,86.50
2018-12-16T17:34:11.737Z,86.50
2018-12-16T17:36:41.753Z,86.40
2018-12-16T17:39:11.279Z,86.40
2018-12-16T17:41:43.195Z,86.90
2018-12-16T17:44:13.052Z,87.20
2018-12-16T17:46:42.831Z,87.00
2018-12-16T17:49:12.561Z,86.50
2018-12-16T17:51:42.668Z,86.90
2018-12-16T17:54:12.985Z,87.20
2018-12-16T17:56:42.835Z,86.90
2018-12-16T17:59:17.855Z,87.20
2018-12-16T18:01:44.765Z,87.10
2018-12-16T18:04:14.407Z,86.90
2018-12-16T18:06:44.387Z,86.90
2018-12-16T18:09:14.407Z,88.60
2018-12-16T18:11:44.604Z,88.30
2018-12-16T18:14:14.470Z,88.30
2018-12-16T18:16:44.099Z,88.40
2018-12-16T18:19:13.568Z,88.70
2018-12-16T18:21:43.347Z,88.70
2018-12-16T18:24:13.099Z,89.10
2018-12-16T18:26:44.257Z,89.10
2018-12-16T18:29:15.178Z,89.00
2018-12-16T18:31:44.671Z,88.80
2018-12-16T18:34:15.674Z,89.30
2018-12-16T18:36:45.628Z,89.10
2018-12-16T18:39:15.186Z,89.40
2018-12-16T18:41:45.108Z,88.90
2018-12-16T18:44:14.666Z,89.10
2018-12-16T18:46:44.457Z,89.30
2018-12-16T18:49:14.069Z,89.90
2018-12-16T18:51:43.579Z,89.40
2018-12-16T18:54:13.276Z,90.30
2018-12-16T18:56:43.001Z,90.40
2018-12-16T18:59:12.925Z,91.00
2018-12-16T19:01:42.342Z,90.90
2018-12-16T19:04:11.862Z,91.20
2018-12-16T19:06:41.388Z,91.00
2018-12-16T19:09:11.433Z,90.80
2018-12-16T19:11:42.916Z,90.60
2018-12-16T19:14:12.517Z,90.30
2018-12-16T19:16:42.156Z,90.40
2018-12-16T19:19:12.054Z,90.30
2018-12-16T19:21:41.507Z,90.30
2018-12-16T19:24:11.157Z,89.80
2018-12-16T19:26:40.981Z,90.10
2018-12-16T19:29:10.594Z,90.80
2018-12-16T19:31:40.023Z,90.90
2018-12-16T19:34:09.687Z,91.10
2018-12-16T19:36:39.547Z,90.90
2018-12-16T19:39:09.606Z,90.80
2018-12-16T19:41:41.453Z,90.90
2018-12-16T19:44:11.627Z,90.90
2018-12-16T19:46:41.317Z,91.10
2018-12-16T19:49:11.351Z,91.10
2018-12-16T19:51:40.840Z,91.30
2018-12-16T19:54:10.453Z,91.70
2018-12-16T19:56:39.932Z,91.60
2018-12-16T19:59:09.884Z,92.00
2018-12-16T20:01:40.045Z,92.00
2018-12-16T20:04:15.184Z,92.00
2018-12-16T20:06:44.727Z,92.10
2018-12-16T20:09:14.759Z,92.20
2018-12-16T20:11:44.428Z,92.10
2018-12-16T20:14:14.468Z,92.00
2018-12-16T20:16:44.100Z,91.90
2018-12-16T20:19:14.276Z,92.20
2018-12-16T20:21:44.112Z,92.20
2018-12-16T20:24:13.812Z,92.40
2018-12-16T20:26:44.880Z,91.90
2018-12-16T20:29:14.776Z,92.00
2018-12-16T20:31:44.754Z,92.10
2018-12-16T20:34:14.617Z,91.90
2018-12-16T20:36:45.024Z,91.50
2018-12-16T20:39:15.020Z,92.20
2018-12-16T20:41:44.884Z,92.40
2018-12-16T20:44:14.608Z,92.30
2018-12-16T20:46:44.674Z,91.30
2018-12-16T20:49:15.058Z,91.80
2018-12-16T20:51:45.225Z,91.70
2018-12-16T20:54:15.475Z,91.60
2018-12-16T20:56:45.704Z,91.70
2018-12-16T20:59:15.789Z,91.60
2018-12-16T21:01:45.635Z,91.90
2018-12-16T21:04:15.675Z,91.80
2018-12-16T21:06:51.680Z,92.10
2018-12-16T21:09:21.821Z,92.10
2018-12-16T21:12:01.583Z,92.10
2018-12-16T21:14:36.813Z,91.80
2018-12-16T21:18:09.169Z,92.20
2018-12-16T21:20:39.140Z,92.30
2018-12-16T21:23:09.034Z,92.40
2018-12-16T21:25:39.000Z,92.20
2018-12-16T21:28:08.914Z,92.40
2018-12-16T21:30:40.301Z,92.10
2018-12-16T21:33:09.911Z,92.30
2018-12-16T21:35:39.476Z,92.00
2018-12-16T21:38:09.232Z,92.10
2018-12-16T21:40:40.285Z,91.30
2018-12-16T21:43:10.884Z,91.30
2018-12-16T21:45:40.977Z,91.60
2018-12-16T21:48:10.630Z,91.20
2018-12-16T21:50:40.556Z,91.20
2018-12-16T21:53:09.884Z,91.40
2018-12-16T21:55:39.459Z,91.20
2018-12-16T21:58:09.655Z,91.10
2018-12-16T22:00:40.220Z,90.60
2018-12-16T22:03:10.016Z,90.50
2018-12-16T22:05:39.940Z,90.60
2018-12-16T22:08:12.966Z,90.00
2018-12-16T22:10:42.905Z,90.20
2018-12-16T22:13:12.420Z,89.40
2018-12-16T22:15:42.031Z,90.10
2018-12-16T22:18:11.637Z,90.30
2018-12-16T22:20:41.673Z,90.40
2018-12-16T22:23:11.967Z,90.30
2018-12-16T22:25:41.817Z,90.20
2018-12-16T22:28:11.574Z,90.50
2018-12-16T22:30:41.222Z,90.20
2018-12-16T22:33:10.689Z,90.40
2018-12-16T22:35:40.097Z,90.20
2018-12-16T22:38:09.942Z,90.00
2018-12-16T22:40:40.672Z,89.70
2018-12-16T22:43:10.305Z,89.80
2018-12-16T22:45:40.040Z,89.10
2018-12-16T22:48:09.679Z,90.10
2018-12-16T22:50:39.401Z,90.10
2018-12-16T22:53:08.966Z,90.60
2018-12-16T22:55:38.727Z,90.90
2018-12-16T22:58:08.466Z,91.00
2018-12-16T23:00:42.022Z,91.10
2018-12-16T23:03:13.260Z,91.10
2018-12-16T23:05:43.063Z,90.70
2018-12-16T23:08:12.833Z,90.50
2018-12-16T23:10:42.772Z,90.80
2018-12-16T23:13:12.607Z,90.50
2018-12-16T23:15:42.500Z,90.80
2018-12-16T23:18:12.108Z,91.10
2018-12-16T23:20:41.833Z,91.40
2018-12-16T23:23:12.368Z,91.60
2018-12-16T23:25:42.141Z,91.50
2018-12-16T23:28:11.951Z,91.50
2018-12-16T23:30:41.375Z,91.70
2018-12-16T23:33:11.031Z,91.80
2018-12-16T23:35:40.467Z,92.00
2018-12-16T23:38:10.415Z,92.10
2018-12-16T23:40:39.876Z,92.40
2018-12-16T23:43:09.217Z,92.20
2018-12-16T23:45:38.817Z,92.00
2018-12-16T23:48:08.239Z,91.60
2018-12-16T23:50:38.292Z,91.40
2018-12-16T23:53:07.757Z,91.60
2018-12-16T23:55:37.346Z,91.50
2018-12-16T23:58:07.044Z,91.70
